Aviation Digital Data Service (ADDS)

Output produced by METARs form (2235 UTC 21 May 2022)
found at http://www.aviationweather.gov/metar/data/
 
EGBB 212220Z 21004KT CAVOK 11/09 Q1018
EGBB 212150Z 22004KT CAVOK 12/09 Q1019
EGBB 212120Z 22003KT CAVOK 14/09 Q1019
EGBB 212050Z 24004KT 210V270 9999 FEW041 15/10 Q1019
EGBB 212020Z 18003KT 9999 SCT040 16/10 Q1018
EGBB 211950Z 19004KT 170V230 9999 FEW044 16/09 Q1018
TAF EGBB 211653Z 2118/2218 24004KT 9999 SCT045